sensor_id;sensor_type;location;lat;lon;timestamp;P1;durP1;ratioP1;P2;durP2;ratioP2
40807;SDS011;26523;52.504;13.498;2023-04-25T00:01:17;4.20;;;1.95;;
40807;SDS011;26523;52.504;13.498;2023-04-25T00:03:43;4.05;;;1.60;;
40807;SDS011;26523;52.504;13.498;2023-04-25T00:06:10;4.13;;;1.23;;
40807;SDS011;26523;52.504;13.498;2023-04-25T00:08:36;3.30;;;1.67;;
40807;SDS011;26523;52.504;13.498;2023-04-25T00:11:01;3.53;;;2.00;;
40807;SDS011;26523;52.504;13.498;2023-04-25T00:13:27;4.57;;;1.65;;
40807;SDS011;26523;52.504;13.498;2023-04-25T00:15:52;4.68;;;1.80;;
40807;SDS011;26523;52.504;13.498;2023-04-25T00:18:18;3.00;;;1.40;;
40807;SDS011;26523;52.504;13.498;2023-04-25T00:20:45;6.07;;;2.03;;
40807;SDS011;26523;52.504;13.498;2023-04-25T00:23:20;2.35;;;1.38;;
40807;SDS011;26523;52.504;13.498;2023-04-25T00:25:48;6.18;;;1.42;;
40807;SDS011;26523;52.504;13.498;2023-04-25T00:28:15;3.72;;;1.73;;
40807;SDS011;26523;52.504;13.498;2023-04-25T00:30:40;3.28;;;1.40;;
40807;SDS011;26523;52.504;13.498;2023-04-25T00:33:07;4.45;;;1.52;;
40807;SDS011;26523;52.504;13.498;2023-04-25T00:35:33;5.55;;;1.70;;
40807;SDS011;26523;52.504;13.498;2023-04-25T00:38:00;5.63;;;1.77;;
40807;SDS011;26523;52.504;13.498;2023-04-25T00:40:26;8.27;;;1.77;;
40807;SDS011;26523;52.504;13.498;2023-04-25T00:42:52;3.88;;;1.63;;
40807;SDS011;26523;52.504;13.498;2023-04-25T00:45:18;5.15;;;1.55;;
40807;SDS011;26523;52.504;13.498;2023-04-25T00:47:44;3.53;;;1.20;;
40807;SDS011;26523;52.504;13.498;2023-04-25T00:50:11;2.55;;;1.50;;
40807;SDS011;26523;52.504;13.498;2023-04-25T00:52:40;6.50;;;1.63;;
40807;SDS011;26523;52.504;13.498;2023-04-25T00:55:09;7.53;;;1.90;;
40807;SDS011;26523;52.504;13.498;2023-04-25T00:57:36;11.25;;;2.03;;
40807;SDS011;26523;52.504;13.498;2023-04-25T01:00:03;8.63;;;1.90;;
40807;SDS011;26523;52.504;13.498;2023-04-25T01:02:30;5.72;;;1.80;;
40807;SDS011;26523;52.504;13.498;2023-04-25T01:04:58;9.70;;;2.08;;
40807;SDS011;26523;52.504;13.498;2023-04-25T01:07:24;5.22;;;2.58;;
40807;SDS011;26523;52.504;13.498;2023-04-25T01:09:53;6.03;;;1.70;;
40807;SDS011;26523;52.504;13.498;2023-04-25T01:12:20;4.43;;;1.90;;
40807;SDS011;26523;52.504;13.498;2023-04-25T01:14:46;4.68;;;1.77;;
40807;SDS011;26523;52.504;13.498;2023-04-25T01:17:11;9.00;;;2.33;;
40807;SDS011;26523;52.504;13.498;2023-04-25T01:19:37;11.43;;;2.15;;
40807;SDS011;26523;52.504;13.498;2023-04-25T01:22:03;5.07;;;1.80;;
40807;SDS011;26523;52.504;13.498;2023-04-25T01:24:30;6.22;;;1.92;;
40807;SDS011;26523;52.504;13.498;2023-04-25T01:26:57;4.38;;;1.90;;
40807;SDS011;26523;52.504;13.498;2023-04-25T01:29:25;5.68;;;1.75;;
40807;SDS011;26523;52.504;13.498;2023-04-25T01:31:52;5.47;;;1.90;;
40807;SDS011;26523;52.504;13.498;2023-04-25T01:34:18;10.18;;;1.88;;
40807;SDS011;26523;52.504;13.498;2023-04-25T01:36:44;6.25;;;1.58;;
40807;SDS011;26523;52.504;13.498;2023-04-25T01:39:12;4.97;;;1.80;;
40807;SDS011;26523;52.504;13.498;2023-04-25T01:41:38;6.00;;;2.00;;
40807;SDS011;26523;52.504;13.498;2023-04-25T01:44:03;10.32;;;1.83;;
40807;SDS011;26523;52.504;13.498;2023-04-25T01:46:29;6.97;;;2.22;;
40807;SDS011;26523;52.504;13.498;2023-04-25T01:48:55;7.55;;;2.33;;
40807;SDS011;26523;52.504;13.498;2023-04-25T01:51:21;13.32;;;1.92;;
40807;SDS011;26523;52.504;13.498;2023-04-25T01:53:47;11.15;;;2.05;;
40807;SDS011;26523;52.504;13.498;2023-04-25T01:56:12;5.40;;;2.20;;
40807;SDS011;26523;52.504;13.498;2023-04-25T01:58:38;5.72;;;2.00;;
40807;SDS011;26523;52.504;13.498;2023-04-25T02:01:04;5.22;;;2.00;;
40807;SDS011;26523;52.504;13.498;2023-04-25T02:03:30;2.80;;;1.70;;
40807;SDS011;26523;52.504;13.498;2023-04-25T02:05:56;9.82;;;2.08;;
40807;SDS011;26523;52.504;13.498;2023-04-25T02:08:22;6.45;;;2.17;;
40807;SDS011;26523;52.504;13.498;2023-04-25T02:10:48;6.43;;;2.25;;
40807;SDS011;26523;52.504;13.498;2023-04-25T02:13:13;7.72;;;2.97;;
40807;SDS011;26523;52.504;13.498;2023-04-25T02:15:39;8.23;;;2.60;;
40807;SDS011;26523;52.504;13.498;2023-04-25T02:18:06;5.78;;;2.55;;
40807;SDS011;26523;52.504;13.498;2023-04-25T02:20:32;5.32;;;2.10;;
40807;SDS011;26523;52.504;13.498;2023-04-25T02:22:57;8.50;;;2.35;;
40807;SDS011;26523;52.504;13.498;2023-04-25T02:25:23;9.93;;;2.42;;
40807;SDS011;26523;52.504;13.498;2023-04-25T02:27:49;5.30;;;1.88;;
40807;SDS011;26523;52.504;13.498;2023-04-25T02:30:16;7.97;;;2.20;;
40807;SDS011;26523;52.504;13.498;2023-04-25T02:32:42;5.03;;;2.13;;
40807;SDS011;26523;52.504;13.498;2023-04-25T02:35:08;5.00;;;1.95;;
40807;SDS011;26523;52.504;13.498;2023-04-25T02:37:34;3.70;;;1.75;;
40807;SDS011;26523;52.504;13.498;2023-04-25T02:40:01;3.88;;;2.15;;
40807;SDS011;26523;52.504;13.498;2023-04-25T02:42:28;6.40;;;2.13;;
40807;SDS011;26523;52.504;13.498;2023-04-25T02:44:53;4.10;;;2.30;;
40807;SDS011;26523;52.504;13.498;2023-04-25T02:47:19;5.75;;;2.00;;
40807;SDS011;26523;52.504;13.498;2023-04-25T02:49:45;7.22;;;1.98;;
40807;SDS011;26523;52.504;13.498;2023-04-25T02:52:11;11.05;;;3.03;;
40807;SDS011;26523;52.504;13.498;2023-04-25T02:54:38;5.72;;;2.30;;
40807;SDS011;26523;52.504;13.498;2023-04-25T02:57:03;6.90;;;2.22;;
40807;SDS011;26523;52.504;13.498;2023-04-25T02:59:29;4.10;;;1.90;;
40807;SDS011;26523;52.504;13.498;2023-04-25T03:01:55;7.97;;;1.95;;
40807;SDS011;26523;52.504;13.498;2023-04-25T03:04:21;5.25;;;2.47;;
40807;SDS011;26523;52.504;13.498;2023-04-25T03:06:49;8.95;;;2.70;;
40807;SDS011;26523;52.504;13.498;2023-04-25T03:09:15;6.55;;;3.25;;
40807;SDS011;26523;52.504;13.498;2023-04-25T03:11:41;8.98;;;2.10;;
40807;SDS011;26523;52.504;13.498;2023-04-25T03:14:07;4.07;;;2.05;;
40807;SDS011;26523;52.504;13.498;2023-04-25T03:16:33;6.13;;;2.20;;
40807;SDS011;26523;52.504;13.498;2023-04-25T03:18:58;11.98;;;2.83;;
40807;SDS011;26523;52.504;13.498;2023-04-25T03:21:24;6.90;;;2.38;;
40807;SDS011;26523;52.504;13.498;2023-04-25T03:23:51;8.82;;;2.33;;
40807;SDS011;26523;52.504;13.498;2023-04-25T03:26:17;6.95;;;2.40;;
40807;SDS011;26523;52.504;13.498;2023-04-25T03:28:42;7.40;;;2.50;;
40807;SDS011;26523;52.504;13.498;2023-04-25T03:31:08;5.40;;;2.25;;
40807;SDS011;26523;52.504;13.498;2023-04-25T03:33:33;6.30;;;2.83;;
40807;SDS011;26523;52.504;13.498;2023-04-25T03:35:59;6.30;;;2.50;;
40807;SDS011;26523;52.504;13.498;2023-04-25T03:38:25;4.65;;;2.58;;
40807;SDS011;26523;52.504;13.498;2023-04-25T03:40:51;6.57;;;2.85;;
40807;SDS011;26523;52.504;13.498;2023-04-25T03:43:16;8.40;;;2.78;;
40807;SDS011;26523;52.504;13.498;2023-04-25T03:45:42;6.07;;;2.90;;
40807;SDS011;26523;52.504;13.498;2023-04-25T03:48:08;11.65;;;3.13;;
40807;SDS011;26523;52.504;13.498;2023-04-25T03:50:33;11.35;;;3.80;;
40807;SDS011;26523;52.504;13.498;2023-04-25T03:52:59;10.80;;;2.17;;
40807;SDS011;26523;52.504;13.498;2023-04-25T03:55:25;8.80;;;2.60;;
40807;SDS011;26523;52.504;13.498;2023-04-25T03:57:51;7.03;;;2.90;;
40807;SDS011;26523;52.504;13.498;2023-04-25T04:00:16;6.00;;;2.40;;
40807;SDS011;26523;52.504;13.498;2023-04-25T04:02:42;10.68;;;2.90;;
40807;SDS011;26523;52.504;13.498;2023-04-25T04:05:08;8.60;;;3.13;;
40807;SDS011;26523;52.504;13.498;2023-04-25T04:07:34;12.05;;;2.53;;
40807;SDS011;26523;52.504;13.498;2023-04-25T04:10:05;7.63;;;2.70;;
40807;SDS011;26523;52.504;13.498;2023-04-25T04:12:34;6.55;;;2.35;;
40807;SDS011;26523;52.504;13.498;2023-04-25T04:15:00;9.05;;;2.40;;
40807;SDS011;26523;52.504;13.498;2023-04-25T04:17:30;12.40;;;3.47;;
40807;SDS011;26523;52.504;13.498;2023-04-25T04:19:55;6.75;;;2.53;;
40807;SDS011;26523;52.504;13.498;2023-04-25T04:22:21;11.85;;;2.20;;
40807;SDS011;26523;52.504;13.498;2023-04-25T04:24:47;6.15;;;2.75;;
40807;SDS011;26523;52.504;13.498;2023-04-25T04:27:14;9.32;;;2.78;;
40807;SDS011;26523;52.504;13.498;2023-04-25T04:29:42;5.40;;;2.90;;
40807;SDS011;26523;52.504;13.498;2023-04-25T04:32:08;8.82;;;2.60;;
40807;SDS011;26523;52.504;13.498;2023-04-25T04:34:34;5.97;;;2.17;;
40807;SDS011;26523;52.504;13.498;2023-04-25T04:37:00;10.85;;;2.83;;
40807;SDS011;26523;52.504;13.498;2023-04-25T04:39:26;9.32;;;2.30;;
40807;SDS011;26523;52.504;13.498;2023-04-25T04:41:51;9.25;;;2.83;;
40807;SDS011;26523;52.504;13.498;2023-04-25T04:44:17;5.43;;;1.67;;
40807;SDS011;26523;52.504;13.498;2023-04-25T04:46:43;6.00;;;2.42;;
40807;SDS011;26523;52.504;13.498;2023-04-25T04:49:09;7.57;;;2.42;;
40807;SDS011;26523;52.504;13.498;2023-04-25T04:51:36;6.57;;;2.30;;
40807;SDS011;26523;52.504;13.498;2023-04-25T04:54:02;6.28;;;2.50;;
40807;SDS011;26523;52.504;13.498;2023-04-25T04:56:28;8.98;;;2.38;;
40807;SDS011;26523;52.504;13.498;2023-04-25T04:58:56;6.05;;;2.63;;
40807;SDS011;26523;52.504;13.498;2023-04-25T05:01:22;13.80;;;3.15;;
40807;SDS011;26523;52.504;13.498;2023-04-25T05:03:48;9.05;;;3.13;;
40807;SDS011;26523;52.504;13.498;2023-04-25T05:06:14;7.65;;;2.20;;
40807;SDS011;26523;52.504;13.498;2023-04-25T05:08:41;6.28;;;2.33;;
40807;SDS011;26523;52.504;13.498;2023-04-25T05:11:07;7.38;;;2.80;;
40807;SDS011;26523;52.504;13.498;2023-04-25T05:13:32;7.03;;;2.33;;
40807;SDS011;26523;52.504;13.498;2023-04-25T05:15:58;10.18;;;2.38;;
40807;SDS011;26523;52.504;13.498;2023-04-25T05:18:24;14.57;;;2.28;;
40807;SDS011;26523;52.504;13.498;2023-04-25T05:20:50;6.32;;;2.30;;
40807;SDS011;26523;52.504;13.498;2023-04-25T05:23:15;9.25;;;2.53;;
40807;SDS011;26523;52.504;13.498;2023-04-25T05:25:41;9.55;;;2.63;;
40807;SDS011;26523;52.504;13.498;2023-04-25T05:28:07;10.13;;;2.35;;
40807;SDS011;26523;52.504;13.498;2023-04-25T05:30:34;10.20;;;3.22;;
40807;SDS011;26523;52.504;13.498;2023-04-25T05:33:00;10.25;;;2.83;;
40807;SDS011;26523;52.504;13.498;2023-04-25T05:35:26;6.70;;;2.55;;
40807;SDS011;26523;52.504;13.498;2023-04-25T05:37:52;9.50;;;2.40;;
40807;SDS011;26523;52.504;13.498;2023-04-25T05:40:17;8.95;;;2.63;;
40807;SDS011;26523;52.504;13.498;2023-04-25T05:42:43;8.27;;;2.80;;
40807;SDS011;26523;52.504;13.498;2023-04-25T05:45:09;9.00;;;3.30;;
40807;SDS011;26523;52.504;13.498;2023-04-25T05:47:35;6.70;;;2.67;;
40807;SDS011;26523;52.504;13.498;2023-04-25T05:50:01;5.78;;;3.00;;
40807;SDS011;26523;52.504;13.498;2023-04-25T05:52:27;6.80;;;2.83;;
40807;SDS011;26523;52.504;13.498;2023-04-25T05:54:52;8.18;;;2.42;;
40807;SDS011;26523;52.504;13.498;2023-04-25T05:57:25;12.40;;;2.80;;
40807;SDS011;26523;52.504;13.498;2023-04-25T05:59:52;8.65;;;2.30;;
40807;SDS011;26523;52.504;13.498;2023-04-25T06:02:19;5.43;;;2.42;;
40807;SDS011;26523;52.504;13.498;2023-04-25T06:04:46;13.75;;;2.42;;
40807;SDS011;26523;52.504;13.498;2023-04-25T06:07:12;7.07;;;2.75;;
40807;SDS011;26523;52.504;13.498;2023-04-25T06:09:38;8.32;;;3.50;;
40807;SDS011;26523;52.504;13.498;2023-04-25T06:12:05;11.40;;;2.50;;
40807;SDS011;26523;52.504;13.498;2023-04-25T06:14:31;8.43;;;2.70;;
40807;SDS011;26523;52.504;13.498;2023-04-25T06:16:57;8.00;;;2.67;;
40807;SDS011;26523;52.504;13.498;2023-04-25T06:19:24;6.18;;;2.60;;
40807;SDS011;26523;52.504;13.498;2023-04-25T06:21:49;8.85;;;3.10;;
40807;SDS011;26523;52.504;13.498;2023-04-25T06:24:15;4.97;;;2.72;;
40807;SDS011;26523;52.504;13.498;2023-04-25T06:26:41;10.95;;;2.80;;
40807;SDS011;26523;52.504;13.498;2023-04-25T06:29:07;16.08;;;3.35;;
40807;SDS011;26523;52.504;13.498;2023-04-25T06:31:33;15.80;;;3.05;;
40807;SDS011;26523;52.504;13.498;2023-04-25T06:33:59;5.13;;;2.55;;
40807;SDS011;26523;52.504;13.498;2023-04-25T06:36:25;8.30;;;2.47;;
40807;SDS011;26523;52.504;13.498;2023-04-25T06:38:52;5.47;;;3.17;;
40807;SDS011;26523;52.504;13.498;2023-04-25T06:41:18;11.65;;;3.50;;
40807;SDS011;26523;52.504;13.498;2023-04-25T06:43:44;8.63;;;3.53;;
40807;SDS011;26523;52.504;13.498;2023-04-25T06:46:10;5.30;;;2.55;;
40807;SDS011;26523;52.504;13.498;2023-04-25T06:48:36;9.88;;;3.35;;
40807;SDS011;26523;52.504;13.498;2023-04-25T06:51:02;8.00;;;2.58;;
40807;SDS011;26523;52.504;13.498;2023-04-25T06:53:28;12.70;;;3.10;;
40807;SDS011;26523;52.504;13.498;2023-04-25T06:55:54;12.25;;;2.97;;
40807;SDS011;26523;52.504;13.498;2023-04-25T06:58:19;8.85;;;2.58;;
40807;SDS011;26523;52.504;13.498;2023-04-25T07:00:45;7.10;;;2.65;;
40807;SDS011;26523;52.504;13.498;2023-04-25T07:03:11;8.95;;;3.65;;
40807;SDS011;26523;52.504;13.498;2023-04-25T07:05:36;8.85;;;2.50;;
40807;SDS011;26523;52.504;13.498;2023-04-25T07:23:32;7.97;;;3.20;;
40807;SDS011;26523;52.504;13.498;2023-04-25T07:25:57;8.30;;;2.50;;
40807;SDS011;26523;52.504;13.498;2023-04-25T07:28:23;7.80;;;2.75;;
40807;SDS011;26523;52.504;13.498;2023-04-25T07:30:52;6.63;;;2.45;;
40807;SDS011;26523;52.504;13.498;2023-04-25T07:40:02;9.85;;;2.83;;
40807;SDS011;26523;52.504;13.498;2023-04-25T07:42:29;8.27;;;2.92;;
40807;SDS011;26523;52.504;13.498;2023-04-25T07:44:55;6.90;;;2.65;;
40807;SDS011;26523;52.504;13.498;2023-04-25T08:00:49;8.35;;;2.50;;
40807;SDS011;26523;52.504;13.498;2023-04-25T08:03:15;9.45;;;2.85;;
40807;SDS011;26523;52.504;13.498;2023-04-25T08:05:40;10.73;;;2.17;;
40807;SDS011;26523;52.504;13.498;2023-04-25T08:08:06;8.70;;;2.95;;
40807;SDS011;26523;52.504;13.498;2023-04-25T08:10:32;11.80;;;2.72;;
40807;SDS011;26523;52.504;13.498;2023-04-25T08:12:59;13.23;;;3.08;;
40807;SDS011;26523;52.504;13.498;2023-04-25T08:15:24;6.30;;;2.65;;
40807;SDS011;26523;52.504;13.498;2023-04-25T08:24:35;16.48;;;3.03;;
40807;SDS011;26523;52.504;13.498;2023-04-25T08:27:00;6.38;;;2.05;;
40807;SDS011;26523;52.504;13.498;2023-04-25T08:29:27;6.18;;;2.38;;
40807;SDS011;26523;52.504;13.498;2023-04-25T08:31:53;10.32;;;2.08;;
40807;SDS011;26523;52.504;13.498;2023-04-25T08:44:24;7.60;;;2.47;;
40807;SDS011;26523;52.504;13.498;2023-04-25T08:46:51;19.25;;;3.35;;
40807;SDS011;26523;52.504;13.498;2023-04-25T08:49:18;14.23;;;2.50;;
40807;SDS011;26523;52.504;13.498;2023-04-25T08:55:06;9.05;;;2.50;;
40807;SDS011;26523;52.504;13.498;2023-04-25T09:07:16;10.73;;;2.15;;
40807;SDS011;26523;52.504;13.498;2023-04-25T09:09:46;16.52;;;1.98;;
40807;SDS011;26523;52.504;13.498;2023-04-25T09:12:11;13.23;;;2.28;;
40807;SDS011;26523;52.504;13.498;2023-04-25T09:14:37;14.10;;;1.95;;
40807;SDS011;26523;52.504;13.498;2023-04-25T09:17:04;13.02;;;2.47;;
40807;SDS011;26523;52.504;13.498;2023-04-25T09:19:33;10.95;;;1.77;;
40807;SDS011;26523;52.504;13.498;2023-04-25T09:22:01;8.23;;;2.05;;
40807;SDS011;26523;52.504;13.498;2023-04-25T09:27:12;8.18;;;2.35;;
40807;SDS011;26523;52.504;13.498;2023-04-25T09:29:42;11.82;;;1.98;;
40807;SDS011;26523;52.504;13.498;2023-04-25T09:32:21;10.65;;;2.45;;
40807;SDS011;26523;52.504;13.498;2023-04-25T09:41:32;5.80;;;1.92;;
40807;SDS011;26523;52.504;13.498;2023-04-25T09:44:03;9.57;;;1.73;;
40807;SDS011;26523;52.504;13.498;2023-04-25T09:46:33;12.43;;;1.75;;
40807;SDS011;26523;52.504;13.498;2023-04-25T09:49:06;8.30;;;1.77;;
40807;SDS011;26523;52.504;13.498;2023-04-25T09:51:32;10.60;;;2.08;;
40807;SDS011;26523;52.504;13.498;2023-04-25T09:53:58;7.40;;;1.80;;
40807;SDS011;26523;52.504;13.498;2023-04-25T09:56:23;13.65;;;2.70;;
40807;SDS011;26523;52.504;13.498;2023-04-25T09:58:52;8.30;;;1.95;;
40807;SDS011;26523;52.504;13.498;2023-04-25T10:01:18;6.70;;;1.77;;
40807;SDS011;26523;52.504;13.498;2023-04-25T10:03:46;9.70;;;1.60;;
40807;SDS011;26523;52.504;13.498;2023-04-25T10:06:18;12.07;;;2.40;;
40807;SDS011;26523;52.504;13.498;2023-04-25T10:08:45;3.42;;;1.30;;
40807;SDS011;26523;52.504;13.498;2023-04-25T10:11:13;4.57;;;1.77;;
40807;SDS011;26523;52.504;13.498;2023-04-25T10:13:40;5.60;;;1.65;;
40807;SDS011;26523;52.504;13.498;2023-04-25T10:16:07;5.65;;;1.40;;
40807;SDS011;26523;52.504;13.498;2023-04-25T10:18:33;6.70;;;1.55;;
40807;SDS011;26523;52.504;13.498;2023-04-25T10:21:00;7.18;;;1.92;;
40807;SDS011;26523;52.504;13.498;2023-04-25T10:23:27;9.43;;;1.55;;
40807;SDS011;26523;52.504;13.498;2023-04-25T10:25:55;7.18;;;2.03;;
40807;SDS011;26523;52.504;13.498;2023-04-25T10:28:21;11.02;;;1.73;;
40807;SDS011;26523;52.504;13.498;2023-04-25T10:31:00;8.00;;;1.75;;
40807;SDS011;26523;52.504;13.498;2023-04-25T10:33:33;4.57;;;1.60;;
40807;SDS011;26523;52.504;13.498;2023-04-25T10:36:18;11.50;;;2.03;;
40807;SDS011;26523;52.504;13.498;2023-04-25T10:38:46;12.05;;;2.67;;
40807;SDS011;26523;52.504;13.498;2023-04-25T10:41:13;11.10;;;2.50;;
40807;SDS011;26523;52.504;13.498;2023-04-25T10:46:19;6.95;;;2.03;;
40807;SDS011;26523;52.504;13.498;2023-04-25T10:52:43;4.72;;;1.52;;
40807;SDS011;26523;52.504;13.498;2023-04-25T10:55:05;11.30;;;2.00;;
40807;SDS011;26523;52.504;13.498;2023-04-25T10:57:44;6.82;;;1.83;;
40807;SDS011;26523;52.504;13.498;2023-04-25T11:00:18;11.10;;;1.80;;
40807;SDS011;26523;52.504;13.498;2023-04-25T11:02:57;15.43;;;2.10;;
40807;SDS011;26523;52.504;13.498;2023-04-25T11:05:33;5.78;;;1.63;;
40807;SDS011;26523;52.504;13.498;2023-04-25T11:08:00;6.18;;;1.58;;
40807;SDS011;26523;52.504;13.498;2023-04-25T11:10:31;12.32;;;1.60;;
40807;SDS011;26523;52.504;13.498;2023-04-25T11:13:00;5.05;;;1.52;;
40807;SDS011;26523;52.504;13.498;2023-04-25T11:15:26;6.75;;;1.55;;
40807;SDS011;26523;52.504;13.498;2023-04-25T11:17:52;9.18;;;1.60;;
40807;SDS011;26523;52.504;13.498;2023-04-25T11:26:59;8.32;;;1.50;;
40807;SDS011;26523;52.504;13.498;2023-04-25T11:29:29;8.00;;;1.80;;
40807;SDS011;26523;52.504;13.498;2023-04-25T11:31:56;6.43;;;1.50;;
40807;SDS011;26523;52.504;13.498;2023-04-25T11:41:10;3.55;;;1.50;;
40807;SDS011;26523;52.504;13.498;2023-04-25T11:43:36;6.05;;;1.80;;
40807;SDS011;26523;52.504;13.498;2023-04-25T11:46:06;6.82;;;1.60;;
40807;SDS011;26523;52.504;13.498;2023-04-25T11:48:39;6.60;;;1.20;;
40807;SDS011;26523;52.504;13.498;2023-04-25T11:51:05;5.82;;;1.45;;
40807;SDS011;26523;52.504;13.498;2023-04-25T11:53:31;7.00;;;1.40;;
40807;SDS011;26523;52.504;13.498;2023-04-25T11:55:57;8.93;;;1.30;;
40807;SDS011;26523;52.504;13.498;2023-04-25T11:58:23;2.80;;;1.00;;
40807;SDS011;26523;52.504;13.498;2023-04-25T12:00:48;6.85;;;1.40;;
40807;SDS011;26523;52.504;13.498;2023-04-25T12:03:14;13.68;;;3.17;;
40807;SDS011;26523;52.504;13.498;2023-04-25T12:05:40;5.55;;;1.80;;
40807;SDS011;26523;52.504;13.498;2023-04-25T12:08:09;7.15;;;1.98;;
40807;SDS011;26523;52.504;13.498;2023-04-25T12:10:37;5.60;;;1.05;;
40807;SDS011;26523;52.504;13.498;2023-04-25T12:18:15;9.43;;;2.28;;
40807;SDS011;26523;52.504;13.498;2023-04-25T12:20:44;8.18;;;1.38;;
40807;SDS011;26523;52.504;13.498;2023-04-25T12:23:09;9.15;;;1.75;;
40807;SDS011;26523;52.504;13.498;2023-04-25T12:28:16;3.42;;;1.30;;
40807;SDS011;26523;52.504;13.498;2023-04-25T12:30:55;4.65;;;1.45;;
40807;SDS011;26523;52.504;13.498;2023-04-25T12:37:03;6.35;;;2.03;;
40807;SDS011;26523;52.504;13.498;2023-04-25T12:39:28;4.07;;;1.10;;
40807;SDS011;26523;52.504;13.498;2023-04-25T12:41:54;4.78;;;1.27;;
40807;SDS011;26523;52.504;13.498;2023-04-25T12:54:26;7.38;;;1.63;;
40807;SDS011;26523;52.504;13.498;2023-04-25T12:56:52;3.17;;;1.40;;
40807;SDS011;26523;52.504;13.498;2023-04-25T13:06:02;7.07;;;1.55;;
40807;SDS011;26523;52.504;13.498;2023-04-25T13:14:46;4.72;;;1.60;;
40807;SDS011;26523;52.504;13.498;2023-04-25T13:23:56;7.82;;;1.23;;
40807;SDS011;26523;52.504;13.498;2023-04-25T13:26:22;6.60;;;1.55;;
40807;SDS011;26523;52.504;13.498;2023-04-25T13:28:48;5.10;;;1.13;;
40807;SDS011;26523;52.504;13.498;2023-04-25T13:37:33;8.80;;;1.60;;
40807;SDS011;26523;52.504;13.498;2023-04-25T13:39:59;3.53;;;1.20;;
40807;SDS011;26523;52.504;13.498;2023-04-25T13:42:25;8.55;;;2.80;;
40807;SDS011;26523;52.504;13.498;2023-04-25T13:44:51;5.32;;;1.45;;
40807;SDS011;26523;52.504;13.498;2023-04-25T13:47:16;5.93;;;1.23;;
40807;SDS011;26523;52.504;13.498;2023-04-25T13:49:42;4.93;;;0.82;;
40807;SDS011;26523;52.504;13.498;2023-04-25T13:52:08;8.73;;;1.27;;
40807;SDS011;26523;52.504;13.498;2023-04-25T13:54:33;5.32;;;1.30;;
40807;SDS011;26523;52.504;13.498;2023-04-25T13:56:59;5.15;;;1.13;;
40807;SDS011;26523;52.504;13.498;2023-04-25T13:59:25;3.80;;;1.88;;
40807;SDS011;26523;52.504;13.498;2023-04-25T14:01:51;3.70;;;0.80;;
40807;SDS011;26523;52.504;13.498;2023-04-25T14:04:16;3.45;;;1.42;;
40807;SDS011;26523;52.504;13.498;2023-04-25T14:06:42;6.80;;;1.13;;
40807;SDS011;26523;52.504;13.498;2023-04-25T14:09:08;5.97;;;1.05;;
40807;SDS011;26523;52.504;13.498;2023-04-25T14:11:36;10.70;;;1.63;;
40807;SDS011;26523;52.504;13.498;2023-04-25T14:14:02;5.35;;;1.45;;
40807;SDS011;26523;52.504;13.498;2023-04-25T14:16:28;8.02;;;1.50;;
40807;SDS011;26523;52.504;13.498;2023-04-25T14:18:55;5.95;;;1.40;;
40807;SDS011;26523;52.504;13.498;2023-04-25T14:21:21;4.40;;;1.20;;
40807;SDS011;26523;52.504;13.498;2023-04-25T14:23:46;5.43;;;1.23;;
40807;SDS011;26523;52.504;13.498;2023-04-25T14:32:45;5.13;;;1.02;;
40807;SDS011;26523;52.504;13.498;2023-04-25T14:35:11;7.82;;;1.30;;
40807;SDS011;26523;52.504;13.498;2023-04-25T14:37:37;4.22;;;1.02;;
40807;SDS011;26523;52.504;13.498;2023-04-25T14:46:47;6.13;;;1.15;;
40807;SDS011;26523;52.504;13.498;2023-04-25T14:49:12;6.13;;;1.02;;
40807;SDS011;26523;52.504;13.498;2023-04-25T14:51:38;9.40;;;1.20;;
40807;SDS011;26523;52.504;13.498;2023-04-25T14:54:04;3.72;;;1.23;;
40807;SDS011;26523;52.504;13.498;2023-04-25T15:03:13;5.20;;;1.25;;
40807;SDS011;26523;52.504;13.498;2023-04-25T15:05:41;10.50;;;1.38;;
40807;SDS011;26523;52.504;13.498;2023-04-25T15:14:52;4.45;;;1.27;;
40807;SDS011;26523;52.504;13.498;2023-04-25T15:17:18;6.35;;;1.45;;
40807;SDS011;26523;52.504;13.498;2023-04-25T15:19:44;5.63;;;1.15;;
40807;SDS011;26523;52.504;13.498;2023-04-25T15:22:10;7.13;;;1.05;;
40807;SDS011;26523;52.504;13.498;2023-04-25T15:24:36;6.57;;;1.20;;
40807;SDS011;26523;52.504;13.498;2023-04-25T15:27:01;7.13;;;0.98;;
40807;SDS011;26523;52.504;13.498;2023-04-25T15:29:27;7.88;;;1.10;;
40807;SDS011;26523;52.504;13.498;2023-04-25T15:31:53;6.10;;;1.35;;
40807;SDS011;26523;52.504;13.498;2023-04-25T15:40:43;3.13;;;0.90;;
40807;SDS011;26523;52.504;13.498;2023-04-25T15:43:09;2.58;;;0.88;;
40807;SDS011;26523;52.504;13.498;2023-04-25T15:45:40;3.45;;;1.20;;
40807;SDS011;26523;52.504;13.498;2023-04-25T15:48:06;3.38;;;0.98;;
40807;SDS011;26523;52.504;13.498;2023-04-25T15:57:13;3.83;;;0.50;;
40807;SDS011;26523;52.504;13.498;2023-04-25T15:59:39;4.50;;;1.10;;
40807;SDS011;26523;52.504;13.498;2023-04-25T16:02:05;4.45;;;1.00;;
40807;SDS011;26523;52.504;13.498;2023-04-25T16:04:31;1.42;;;0.65;;
40807;SDS011;26523;52.504;13.498;2023-04-25T16:06:59;5.25;;;1.30;;
40807;SDS011;26523;52.504;13.498;2023-04-25T16:09:27;5.40;;;1.42;;
40807;SDS011;26523;52.504;13.498;2023-04-25T16:11:53;2.50;;;0.80;;
40807;SDS011;26523;52.504;13.498;2023-04-25T16:14:19;6.13;;;0.75;;
40807;SDS011;26523;52.504;13.498;2023-04-25T16:16:45;4.15;;;0.80;;
40807;SDS011;26523;52.504;13.498;2023-04-25T16:19:11;8.10;;;1.05;;
40807;SDS011;26523;52.504;13.498;2023-04-25T16:21:36;3.80;;;0.88;;
40807;SDS011;26523;52.504;13.498;2023-04-25T16:24:02;11.45;;;1.42;;
40807;SDS011;26523;52.504;13.498;2023-04-25T16:26:28;4.32;;;0.80;;
40807;SDS011;26523;52.504;13.498;2023-04-25T16:28:54;5.88;;;1.30;;
40807;SDS011;26523;52.504;13.498;2023-04-25T16:31:20;2.70;;;0.85;;
40807;SDS011;26523;52.504;13.498;2023-04-25T16:33:45;5.82;;;1.27;;
40807;SDS011;26523;52.504;13.498;2023-04-25T16:36:11;2.85;;;1.08;;
40807;SDS011;26523;52.504;13.498;2023-04-25T16:38:37;5.43;;;0.88;;
40807;SDS011;26523;52.504;13.498;2023-04-25T16:41:04;5.40;;;0.68;;
40807;SDS011;26523;52.504;13.498;2023-04-25T16:43:30;3.00;;;0.70;;
40807;SDS011;26523;52.504;13.498;2023-04-25T16:45:56;4.85;;;1.70;;
40807;SDS011;26523;52.504;13.498;2023-04-25T16:48:22;7.25;;;0.80;;
40807;SDS011;26523;52.504;13.498;2023-04-25T16:50:52;2.88;;;0.70;;
40807;SDS011;26523;52.504;13.498;2023-04-25T16:53:18;2.53;;;0.80;;
40807;SDS011;26523;52.504;13.498;2023-04-25T16:55:45;2.20;;;0.90;;
40807;SDS011;26523;52.504;13.498;2023-04-25T16:58:11;3.08;;;1.30;;
40807;SDS011;26523;52.504;13.498;2023-04-25T17:00:39;2.13;;;1.02;;
40807;SDS011;26523;52.504;13.498;2023-04-25T17:03:06;5.00;;;1.10;;
40807;SDS011;26523;52.504;13.498;2023-04-25T17:40:14;5.10;;;0.90;;
40807;SDS011;26523;52.504;13.498;2023-04-25T17:42:40;2.47;;;0.85;;
40807;SDS011;26523;52.504;13.498;2023-04-25T18:08:42;4.75;;;1.20;;
40807;SDS011;26523;52.504;13.498;2023-04-25T18:11:08;5.53;;;1.00;;
40807;SDS011;26523;52.504;13.498;2023-04-25T18:13:34;5.25;;;1.02;;
40807;SDS011;26523;52.504;13.498;2023-04-25T18:16:01;5.55;;;0.93;;
40807;SDS011;26523;52.504;13.498;2023-04-25T18:18:27;3.97;;;0.90;;
40807;SDS011;26523;52.504;13.498;2023-04-25T18:20:59;3.90;;;1.02;;
40807;SDS011;26523;52.504;13.498;2023-04-25T18:23:27;4.45;;;1.55;;
40807;SDS011;26523;52.504;13.498;2023-04-25T18:25:53;6.20;;;1.42;;
40807;SDS011;26523;52.504;13.498;2023-04-25T18:28:19;5.57;;;1.17;;
40807;SDS011;26523;52.504;13.498;2023-04-25T18:30:46;6.07;;;1.35;;